createdAt,value
2023-03-17T00:00:16.573Z,83.2
2023-03-17T00:01:17.083Z,83.1
2023-03-17T00:02:17.010Z,83.1
2023-03-17T00:03:16.665Z,83.1
2023-03-17T00:04:17.200Z,83.1
2023-03-17T00:06:16.797Z,83.2
2023-03-17T00:07:17.356Z,83.3
2023-03-17T00:09:16.945Z,83.2
2023-03-17T00:10:17.459Z,83.2
2023-03-17T00:11:16.998Z,83.1
2023-03-17T00:12:17.087Z,83.2
2023-03-17T00:13:16.559Z,83.3
2023-03-17T00:14:17.077Z,83.3
2023-03-17T00:15:16.547Z,83.4
2023-03-17T00:16:17.317Z,83.4
2023-03-17T00:17:16.910Z,83.3
2023-03-17T00:18:17.409Z,83.3
2023-03-17T00:19:16.899Z,83.3
2023-03-17T00:20:17.397Z,83.5
2023-03-17T00:21:16.924Z,84.3
2023-03-17T00:23:16.791Z,84.3
2023-03-17T00:24:17.419Z,84.0
2023-03-17T00:25:16.908Z,83.9
2023-03-17T00:26:17.479Z,83.8
2023-03-17T00:27:16.971Z,83.8
2023-03-17T00:28:16.469Z,83.8
2023-03-17T00:29:16.942Z,83.8
2023-03-17T00:30:17.482Z,83.7
2023-03-17T00:31:17.229Z,83.7
2023-03-17T00:32:17.105Z,83.7
2023-03-17T00:34:16.708Z,84.9
2023-03-17T00:35:17.239Z,84.9
2023-03-17T00:36:16.764Z,84.9
2023-03-17T00:37:17.267Z,85.5
2023-03-17T00:38:16.755Z,85.4
2023-03-17T00:39:17.347Z,85.4
2023-03-17T00:40:16.867Z,85.9
2023-03-17T00:42:17.049Z,85.8
2023-03-17T00:43:16.530Z,85.5
2023-03-17T00:44:17.035Z,85.3
2023-03-17T00:46:16.825Z,85.3
2023-03-17T00:47:17.435Z,85.1
2023-03-17T00:48:17.324Z,84.8
2023-03-17T00:49:17.862Z,84.9
2023-03-17T00:50:17.369Z,85.1
2023-03-17T00:51:16.865Z,85.1
2023-03-17T00:52:16.559Z,84.7
2023-03-17T00:54:17.230Z,84.9
2023-03-17T00:55:16.720Z,84.7
2023-03-17T00:56:17.248Z,84.4
2023-03-17T00:58:16.922Z,82.2
2023-03-17T01:00:16.499Z,81.1
2023-03-17T01:01:17.072Z,80.5
2023-03-17T01:02:17.023Z,80.1
2023-03-17T01:03:16.554Z,79.6
2023-03-17T01:05:17.141Z,81.1
2023-03-17T01:06:16.767Z,80.7
2023-03-17T01:07:17.365Z,79.9
2023-03-17T01:08:16.861Z,79.9
2023-03-17T01:09:17.373Z,79.7
2023-03-17T01:10:16.897Z,79.3
2023-03-17T01:11:17.397Z,81.5
2023-03-17T01:12:17.069Z,82.3
2023-03-17T01:13:16.554Z,82.5
2023-03-17T01:14:17.162Z,83.0
2023-03-17T01:16:16.821Z,83.3
2023-03-17T01:17:17.334Z,83.5
2023-03-17T01:18:17.006Z,83.8
2023-03-17T01:20:16.598Z,84.0
2023-03-17T01:21:17.103Z,83.8
2023-03-17T01:22:17.145Z,83.7
2023-03-17T01:23:16.640Z,83.6
2023-03-17T01:24:17.139Z,83.9
2023-03-17T01:26:16.722Z,84.3
2023-03-17T01:27:17.224Z,84.5
2023-03-17T01:28:16.727Z,84.8
2023-03-17T01:29:17.227Z,85.0
2023-03-17T01:30:16.716Z,85.3
2023-03-17T01:31:17.292Z,85.6
2023-03-17T01:32:17.255Z,85.7
2023-03-17T01:33:16.762Z,85.3
2023-03-17T01:34:17.304Z,83.2
2023-03-17T01:35:16.810Z,83.1
2023-03-17T01:36:17.316Z,83.2
2023-03-17T01:37:16.823Z,83.6
2023-03-17T01:38:17.368Z,83.5
2023-03-17T01:39:16.881Z,83.8
2023-03-17T01:40:17.414Z,83.8
2023-03-17T01:41:16.908Z,83.9
2023-03-17T01:42:17.324Z,83.9
2023-03-17T01:43:16.836Z,83.9
2023-03-17T01:44:17.336Z,84.8
2023-03-17T01:45:16.841Z,84.8
2023-03-17T01:46:17.410Z,84.8
2023-03-17T01:47:16.929Z,84.6
2023-03-17T01:48:17.441Z,85.0
2023-03-17T01:49:16.945Z,85.1
2023-03-17T01:50:17.423Z,85.2
2023-03-17T01:52:16.928Z,85.5
2023-03-17T01:53:17.431Z,85.5
2023-03-17T01:54:16.942Z,85.4
2023-03-17T01:55:17.478Z,85.3
2023-03-17T01:56:16.973Z,85.6
2023-03-17T01:57:16.478Z,85.7
2023-03-17T01:58:17.007Z,86.0
2023-03-17T02:00:16.578Z,86.3
2023-03-17T02:01:17.087Z,86.3
2023-03-17T02:02:16.804Z,86.2
2023-03-17T02:04:17.558Z,86.8
2023-03-17T02:07:17.267Z,86.3
2023-03-17T02:08:16.803Z,86.1
2023-03-17T02:09:17.402Z,86.1
2023-03-17T02:11:17.015Z,86.0
2023-03-17T02:12:16.519Z,86.0
2023-03-17T02:13:17.032Z,85.9
2023-03-17T02:14:16.550Z,85.8
2023-03-17T02:15:17.053Z,85.8
2023-03-17T02:16:16.717Z,85.9
2023-03-17T02:17:17.235Z,85.9
2023-03-17T02:18:16.723Z,85.9
2023-03-17T02:19:17.210Z,86.2
2023-03-17T02:20:16.691Z,86.5
2023-03-17T02:21:17.208Z,86.8
2023-03-17T02:22:16.528Z,87.0
2023-03-17T02:23:17.036Z,87.1
2023-03-17T02:24:16.548Z,87.0
2023-03-17T02:25:17.068Z,86.8
2023-03-17T02:26:16.587Z,87.0
2023-03-17T02:27:17.136Z,86.9
2023-03-17T02:28:16.662Z,86.8
2023-03-17T02:29:17.176Z,86.8
2023-03-17T02:30:16.681Z,86.8
2023-03-17T02:31:17.299Z,86.7
2023-03-17T02:32:17.361Z,86.8
2023-03-17T02:33:16.850Z,86.8
2023-03-17T02:34:17.356Z,86.8
2023-03-17T02:35:16.855Z,86.9
2023-03-17T02:36:17.400Z,86.6
2023-03-17T02:37:16.931Z,86.5
2023-03-17T02:38:17.438Z,86.6
2023-03-17T02:39:16.946Z,86.9
2023-03-17T02:40:17.458Z,86.8
2023-03-17T02:41:16.971Z,86.6
2023-03-17T02:42:17.042Z,86.3
2023-03-17T02:45:16.719Z,84.5
2023-03-17T02:47:17.281Z,83.5
2023-03-17T02:48:16.816Z,83.2
2023-03-17T02:49:17.345Z,82.7
2023-03-17T02:51:16.951Z,82.0
2023-03-17T02:53:17.320Z,82.7
2023-03-17T02:54:16.831Z,83.2
2023-03-17T02:55:17.319Z,83.7
2023-03-17T02:56:16.825Z,84.0
2023-03-17T02:57:17.336Z,84.1
2023-03-17T02:58:16.834Z,84.3
2023-03-17T02:59:17.291Z,84.5
2023-03-17T03:00:16.824Z,84.6
2023-03-17T03:01:17.386Z,84.8
2023-03-17T03:02:16.757Z,84.8
2023-03-17T03:03:17.279Z,85.0
2023-03-17T03:04:16.762Z,85.0
2023-03-17T03:05:17.276Z,84.9
2023-03-17T03:06:16.787Z,84.8
2023-03-17T03:07:17.325Z,84.8
2023-03-17T03:08:16.793Z,84.7
2023-03-17T03:11:17.466Z,85.4
2023-03-17T03:14:17.023Z,85.3
2023-03-17T03:15:16.531Z,85.4
2023-03-17T03:16:17.210Z,85.3
2023-03-17T03:17:16.737Z,85.2
2023-03-17T03:20:17.397Z,84.9
2023-03-17T03:21:16.947Z,84.7
2023-03-17T03:22:16.959Z,84.7
2023-03-17T03:23:17.477Z,84.8
2023-03-17T03:24:16.973Z,84.7
2023-03-17T03:25:17.468Z,84.6
2023-03-17T03:26:17.007Z,84.6
2023-03-17T03:27:16.482Z,84.7
2023-03-17T03:28:16.992Z,84.7
2023-03-17T03:29:16.466Z,84.8
2023-03-17T03:30:16.968Z,84.8
2023-03-17T03:31:17.666Z,84.8
2023-03-17T03:32:17.320Z,84.9
2023-03-17T03:33:16.846Z,84.9
2023-03-17T03:34:17.432Z,84.8
2023-03-17T03:35:16.948Z,83.8
2023-03-17T03:36:17.461Z,83.0
2023-03-17T03:37:16.983Z,82.9
2023-03-17T03:38:16.466Z,82.5
2023-03-17T03:39:16.961Z,81.9
2023-03-17T03:40:17.454Z,81.4
2023-03-17T03:41:16.929Z,80.9
2023-03-17T03:42:16.692Z,80.9
2023-03-17T03:43:24.217Z,80.9
2023-03-17T03:44:16.808Z,80.7
2023-03-17T03:45:17.293Z,80.5
2023-03-17T03:46:16.940Z,80.5
2023-03-17T03:47:16.489Z,80.1
2023-03-17T03:48:17.027Z,79.8
2023-03-17T03:49:16.567Z,79.7
2023-03-17T03:50:17.071Z,79.5
2023-03-17T03:51:16.549Z,79.5
2023-03-17T03:52:17.382Z,78.7
2023-03-17T03:53:16.881Z,78.6
2023-03-17T03:54:17.353Z,78.4
2023-03-17T03:55:16.873Z,78.3
2023-03-17T03:56:17.379Z,77.9
2023-03-17T03:57:16.897Z,77.9
2023-03-17T03:58:17.384Z,78.0
2023-03-17T03:59:16.877Z,78.0
2023-03-17T04:00:17.374Z,78.1
2023-03-17T04:01:16.891Z,77.9
2023-03-17T04:02:17.053Z,77.9
2023-03-17T04:03:16.589Z,78.0
2023-03-17T04:04:17.071Z,78.0
2023-03-17T04:05:16.574Z,78.0
2023-03-17T04:06:17.068Z,78.0
2023-03-17T04:07:16.552Z,78.0
2023-03-17T04:08:17.055Z,77.7
2023-03-17T04:09:16.558Z,77.8
2023-03-17T04:10:17.055Z,77.9
2023-03-17T04:11:16.557Z,77.8
2023-03-17T04:12:17.346Z,77.9
2023-03-17T04:13:16.840Z,78.0
2023-03-17T04:14:17.320Z,78.0
2023-03-17T04:15:16.864Z,78.3
2023-03-17T04:16:17.522Z,78.0
2023-03-17T04:17:17.043Z,77.6
2023-03-17T04:18:16.542Z,77.6
2023-03-17T04:19:17.167Z,77.2
2023-03-17T04:20:16.723Z,77.3
2023-03-17T04:21:17.219Z,77.4
2023-03-17T04:22:17.312Z,77.3
2023-03-17T04:23:16.805Z,77.4
2023-03-17T04:24:17.301Z,77.3
2023-03-17T04:25:16.796Z,77.3
2023-03-17T04:26:17.376Z,77.5
2023-03-17T04:27:16.887Z,77.6
2023-03-17T04:28:17.399Z,77.3
2023-03-17T04:29:16.934Z,77.4
2023-03-17T04:30:17.440Z,77.4
2023-03-17T04:31:17.007Z,77.4
2023-03-17T04:32:17.392Z,77.6
2023-03-17T04:33:16.905Z,77.3
2023-03-17T04:34:17.404Z,77.3
2023-03-17T04:35:16.930Z,77.2
2023-03-17T04:36:17.450Z,77.2
2023-03-17T04:37:16.939Z,77.2
2023-03-17T04:38:17.415Z,77.1
2023-03-17T04:39:16.905Z,77.2
2023-03-17T04:40:17.438Z,77.3
2023-03-17T04:41:16.925Z,77.1
2023-03-17T04:42:16.734Z,77.2
2023-03-17T04:43:17.264Z,77.1
2023-03-17T04:44:16.776Z,77.1
2023-03-17T04:45:17.364Z,77.1
2023-03-17T04:46:17.032Z,76.9
2023-03-17T04:47:16.596Z,76.8
2023-03-17T04:48:17.243Z,76.7
2023-03-17T04:49:16.736Z,76.7
2023-03-17T04:50:17.232Z,76.9
2023-03-17T04:51:16.732Z,76.9
2023-03-17T04:52:16.762Z,77.1
2023-03-17T04:53:17.282Z,77.3
2023-03-17T04:54:16.806Z,77.5
2023-03-17T04:55:17.290Z,77.5
2023-03-17T04:56:16.795Z,77.2
2023-03-17T04:57:17.323Z,76.9
2023-03-17T04:58:30.987Z,76.9
2023-03-17T04:59:16.654Z,77.2
2023-03-17T05:00:17.179Z,77.0
2023-03-17T05:01:16.737Z,77.1
2023-03-17T05:02:17.457Z,77.2
2023-03-17T05:03:27.882Z,77.0
2023-03-17T05:04:31.465Z,77.6
2023-03-17T05:05:17.416Z,77.9
2023-03-17T05:06:16.907Z,78.9
2023-03-17T05:07:17.388Z,79.7
2023-03-17T05:08:16.883Z,80.1
2023-03-17T05:09:17.474Z,80.3
2023-03-17T05:10:17.017Z,80.4
2023-03-17T05:11:16.523Z,80.6
2023-03-17T05:12:17.335Z,81.0
2023-03-17T05:13:16.863Z,81.0
2023-03-17T05:14:17.389Z,80.9
2023-03-17T05:15:16.909Z,80.9
2023-03-17T05:16:17.509Z,80.8
2023-03-17T05:17:17.005Z,80.8
2023-03-17T05:18:16.523Z,80.8
2023-03-17T05:19:17.001Z,80.8
2023-03-17T05:20:16.529Z,80.9
2023-03-17T05:21:17.018Z,81.5
2023-03-17T05:22:16.906Z,81.6
2023-03-17T05:23:17.406Z,81.8
2023-03-17T05:24:16.905Z,82.4
2023-03-17T05:25:17.429Z,82.3
2023-03-17T05:26:16.945Z,82.1
2023-03-17T05:27:17.447Z,82.0
2023-03-17T05:28:16.940Z,82.0
2023-03-17T05:29:17.464Z,82.0
2023-03-17T05:30:16.985Z,81.9
2023-03-17T05:31:16.633Z,81.9
2023-03-17T05:32:16.649Z,81.5
2023-03-17T05:33:17.148Z,81.4
2023-03-17T05:34:16.676Z,81.4
2023-03-17T05:35:17.185Z,81.4
2023-03-17T05:36:16.679Z,81.6
2023-03-17T05:37:17.166Z,81.2
2023-03-17T05:38:16.643Z,81.0
2023-03-17T05:39:17.158Z,81.1
2023-03-17T05:40:16.674Z,81.7
2023-03-17T05:41:17.159Z,81.8
2023-03-17T05:42:16.735Z,81.7
2023-03-17T05:43:17.220Z,81.9
2023-03-17T05:44:16.737Z,82.0
2023-03-17T05:45:17.225Z,82.1
2023-03-17T05:46:20.482Z,82.3
2023-03-17T05:47:17.144Z,82.4
2023-03-17T05:48:16.649Z,82.5
2023-03-17T05:49:17.129Z,82.6
2023-03-17T05:50:16.680Z,82.8
2023-03-17T05:51:17.180Z,83.8
2023-03-17T05:52:17.386Z,84.2
2023-03-17T05:53:16.884Z,84.1
2023-03-17T05:54:17.403Z,83.8
2023-03-17T05:55:16.917Z,83.7
2023-03-17T05:56:17.449Z,83.6
2023-03-17T05:57:16.921Z,83.5
2023-03-17T05:58:17.442Z,83.3
2023-03-17T05:59:16.990Z,83.2
2023-03-17T06:00:16.487Z,83.3
2023-03-17T06:01:16.975Z,83.3
2023-03-17T06:02:16.960Z,83.4
2023-03-17T06:03:16.573Z,83.4
2023-03-17T06:04:17.067Z,83.4
2023-03-17T06:05:16.624Z,83.4
2023-03-17T06:06:17.124Z,83.3
2023-03-17T06:07:16.629Z,83.5
2023-03-17T06:08:17.210Z,83.6
2023-03-17T06:09:16.708Z,83.6
2023-03-17T06:10:17.188Z,83.5
2023-03-17T06:11:16.701Z,83.3
2023-03-17T06:12:16.949Z,83.3
2023-03-17T06:13:17.459Z,83.4
2023-03-17T06:14:16.967Z,83.5
2023-03-17T06:15:16.479Z,83.5
2023-03-17T06:16:17.115Z,83.2
2023-03-17T06:17:16.599Z,83.2
2023-03-17T06:18:17.079Z,83.3
2023-03-17T06:19:16.604Z,83.4
2023-03-17T06:20:17.135Z,83.4
2023-03-17T06:21:16.625Z,83.4
2023-03-17T06:22:17.421Z,83.3
2023-03-17T06:23:16.925Z,82.4
2023-03-17T06:24:17.432Z,81.9
2023-03-17T06:25:16.962Z,81.6
2023-03-17T06:26:17.607Z,80.6
2023-03-17T06:27:17.119Z,80.3
2023-03-17T06:28:16.596Z,80.4
2023-03-17T06:29:17.105Z,80.2
2023-03-17T06:30:16.621Z,79.3
2023-03-17T06:31:17.197Z,78.6
2023-03-17T06:32:21.301Z,78.5
2023-03-17T06:33:16.832Z,78.0
2023-03-17T06:34:17.347Z,77.4
2023-03-17T06:35:16.886Z,77.3
2023-03-17T06:36:17.370Z,76.5
2023-03-17T06:37:16.870Z,76.1
2023-03-17T06:38:17.347Z,75.6
2023-03-17T06:39:16.857Z,75.4
2023-03-17T06:40:17.373Z,74.7
2023-03-17T06:41:16.871Z,74.4
2023-03-17T06:42:16.578Z,74.2
2023-03-17T06:43:17.072Z,73.8
2023-03-17T06:44:16.575Z,73.4
2023-03-17T06:45:17.098Z,73.2
2023-03-17T06:46:16.666Z,72.8
2023-03-17T06:47:17.233Z,72.5
2023-03-17T06:48:16.742Z,71.3
2023-03-17T06:49:17.253Z,71.3
2023-03-17T06:50:16.735Z,71.7
2023-03-17T06:51:17.269Z,71.9
2023-03-17T06:52:17.251Z,71.5
2023-03-17T06:53:16.766Z,71.1
2023-03-17T06:54:17.244Z,70.8
2023-03-17T06:55:16.748Z,70.6
2023-03-17T06:56:30.408Z,70.7
2023-03-17T06:57:17.167Z,70.6
2023-03-17T06:58:16.658Z,68.1
2023-03-17T06:59:17.151Z,67.9
2023-03-17T07:00:16.663Z,68.5
2023-03-17T07:01:17.366Z,69.1
2023-03-17T07:02:17.083Z,68.3
2023-03-17T07:03:16.557Z,68.5
2023-03-17T07:04:17.119Z,68.6
2023-03-17T07:05:16.663Z,66.9
2023-03-17T07:06:17.165Z,65.6
2023-03-17T07:07:16.674Z,65.2
2023-03-17T07:08:17.182Z,65.4
2023-03-17T07:09:16.693Z,64.7
2023-03-17T07:10:17.284Z,65.4
2023-03-17T07:11:16.871Z,65.5
2023-03-17T07:12:16.570Z,64.4
2023-03-17T07:13:17.092Z,63.3
2023-03-17T07:14:16.586Z,63.6
2023-03-17T07:15:17.087Z,63.2
2023-03-17T07:16:16.666Z,62.2
2023-03-17T07:17:17.247Z,61.7
2023-03-17T07:18:16.753Z,62.5
2023-03-17T07:19:17.257Z,63.3
2023-03-17T07:20:16.788Z,61.9
2023-03-17T07:21:17.274Z,61.4
2023-03-17T07:22:16.983Z,60.7
2023-03-17T07:23:16.487Z,60.6
2023-03-17T07:24:16.992Z,60.0
2023-03-17T07:25:16.503Z,59.9
2023-03-17T07:26:17.038Z,59.2
2023-03-17T07:27:16.578Z,59.2
2023-03-17T07:28:17.091Z,59.6
2023-03-17T07:29:16.618Z,59.2
2023-03-17T07:30:17.146Z,57.9
2023-03-17T07:31:16.747Z,57.4
2023-03-17T07:32:16.884Z,57.0
2023-03-17T07:33:17.423Z,57.0
2023-03-17T07:34:16.930Z,56.4
2023-03-17T07:35:17.645Z,57.4
2023-03-17T07:36:17.188Z,56.6
2023-03-17T07:37:16.736Z,55.5
2023-03-17T07:38:17.289Z,55.4
2023-03-17T07:39:16.893Z,55.1
2023-03-17T07:40:17.411Z,54.0
2023-03-17T07:41:16.951Z,53.7
2023-03-17T07:42:16.895Z,53.9
2023-03-17T07:43:17.379Z,52.4
2023-03-17T07:44:16.860Z,52.8
2023-03-17T07:45:17.427Z,52.1
2023-03-17T07:46:17.069Z,52.3
2023-03-17T07:47:16.792Z,53.0
2023-03-17T07:48:17.431Z,52.7
2023-03-17T07:49:27.743Z,52.8
2023-03-17T07:50:16.949Z,52.4
2023-03-17T07:51:17.477Z,52.4
2023-03-17T07:52:17.443Z,52.1
2023-03-17T07:53:16.953Z,51.7
2023-03-17T07:54:17.439Z,51.6
2023-03-17T07:55:16.925Z,51.3
2023-03-17T07:56:17.497Z,51.7
2023-03-17T07:57:17.220Z,50.6
2023-03-17T07:58:16.754Z,50.8
2023-03-17T07:59:17.262Z,51.5
2023-03-17T08:00:16.788Z,51.2
2023-03-17T08:01:17.352Z,51.3
2023-03-17T08:02:16.828Z,51.5
2023-03-17T08:03:17.418Z,51.0
2023-03-17T08:04:16.950Z,50.4
2023-03-17T08:05:17.428Z,50.0
2023-03-17T08:06:16.943Z,50.5
2023-03-17T08:07:17.483Z,51.1
2023-03-17T08:08:16.966Z,51.4
2023-03-17T08:09:16.447Z,51.0
2023-03-17T08:10:16.975Z,50.6
2023-03-17T08:11:16.569Z,50.6
2023-03-17T08:12:17.463Z,50.3
2023-03-17T08:13:16.999Z,51.1
2023-03-17T08:14:16.487Z,51.5
2023-03-17T08:15:16.967Z,51.5
2023-03-17T08:16:16.630Z,51.4
2023-03-17T08:17:17.172Z,51.0
2023-03-17T08:18:16.673Z,50.1
2023-03-17T08:19:17.222Z,50.1
2023-03-17T08:20:16.791Z,49.9
2023-03-17T08:21:17.292Z,49.4
2023-03-17T08:22:17.334Z,49.7
2023-03-17T08:23:16.861Z,49.8
2023-03-17T08:24:17.403Z,50.1
2023-03-17T08:25:16.940Z,49.2
2023-03-17T08:26:17.483Z,48.3
2023-03-17T08:27:17.010Z,48.6
2023-03-17T08:28:16.552Z,48.2
2023-03-17T08:29:17.094Z,49.4
2023-03-17T08:30:16.671Z,49.0
2023-03-17T08:31:17.454Z,48.1
2023-03-17T08:32:16.918Z,48.0
2023-03-17T08:33:17.589Z,49.2
2023-03-17T08:34:17.117Z,49.0
2023-03-17T08:35:16.606Z,49.8
2023-03-17T08:36:17.102Z,49.3
2023-03-17T08:37:16.585Z,49.0
2023-03-17T08:38:17.138Z,48.1
2023-03-17T08:39:16.630Z,47.0
2023-03-17T08:40:17.217Z,47.1
2023-03-17T08:41:16.789Z,48.3
2023-03-17T08:42:16.838Z,49.5
2023-03-17T08:43:17.334Z,48.4
2023-03-17T08:44:16.915Z,46.8
2023-03-17T08:45:17.447Z,46.8
2023-03-17T08:46:17.183Z,47.6
2023-03-17T08:47:16.740Z,47.8
2023-03-17T08:48:17.252Z,47.7
2023-03-17T08:49:16.766Z,47.5
2023-03-17T08:50:17.328Z,46.9
2023-03-17T08:51:22.182Z,46.1
2023-03-17T08:52:16.579Z,46.0
2023-03-17T08:53:17.104Z,45.7
2023-03-17T08:54:16.675Z,45.7
2023-03-17T08:55:17.202Z,45.1
2023-03-17T08:56:16.713Z,47.1
2023-03-17T08:57:17.254Z,47.8
2023-03-17T08:58:16.752Z,48.8
2023-03-17T08:59:17.267Z,46.6
2023-03-17T09:00:16.791Z,46.6
2023-03-17T09:01:17.294Z,45.7
2023-03-17T09:02:17.082Z,46.1
2023-03-17T09:03:16.614Z,45.6
2023-03-17T09:04:17.120Z,44.4
2023-03-17T09:05:16.658Z,44.4
2023-03-17T09:06:17.130Z,45.0
2023-03-17T09:07:16.647Z,44.3
2023-03-17T09:08:17.271Z,44.6
2023-03-17T09:09:16.770Z,45.5
2023-03-17T09:10:17.337Z,45.1
2023-03-17T09:11:17.020Z,44.2
2023-03-17T09:12:17.376Z,42.1
2023-03-17T09:13:16.853Z,43.2
2023-03-17T09:14:17.349Z,43.5
2023-03-17T09:15:16.863Z,43.8
2023-03-17T09:16:17.560Z,43.9
2023-03-17T09:17:17.135Z,43.4
2023-03-17T09:18:16.629Z,43.0
2023-03-17T09:19:17.117Z,42.7
2023-03-17T09:20:16.619Z,42.4
2023-03-17T09:21:17.115Z,44.0
2023-03-17T09:22:16.874Z,44.2
2023-03-17T09:23:17.371Z,43.8
2023-03-17T09:24:16.878Z,42.5
2023-03-17T09:25:17.402Z,42.7
2023-03-17T09:26:16.962Z,41.9
2023-03-17T09:27:16.531Z,42.5
2023-03-17T09:28:17.048Z,43.1
2023-03-17T09:29:16.553Z,43.0
2023-03-17T09:30:17.023Z,43.7
2023-03-17T09:31:16.638Z,44.4
2023-03-17T09:32:17.404Z,44.5
2023-03-17T09:33:16.921Z,45.0
2023-03-17T09:34:17.443Z,44.3
2023-03-17T09:35:16.942Z,44.2
2023-03-17T09:36:17.485Z,44.5
2023-03-17T09:37:17.027Z,44.7
2023-03-17T09:38:16.571Z,44.6
2023-03-17T09:39:17.049Z,44.3
2023-03-17T09:40:16.580Z,42.7
2023-03-17T09:41:17.050Z,42.4
2023-03-17T09:42:16.761Z,42.2
2023-03-17T09:43:17.259Z,42.5
2023-03-17T09:44:16.722Z,42.1
2023-03-17T09:45:17.210Z,42.3
2023-03-17T09:46:16.772Z,42.9
2023-03-17T09:47:17.295Z,40.8
2023-03-17T09:48:16.828Z,42.1
2023-03-17T09:49:17.318Z,42.8
2023-03-17T09:50:16.835Z,42.8
2023-03-17T09:51:17.357Z,43.1
2023-03-17T09:52:16.604Z,41.3
2023-03-17T09:53:17.096Z,42.2
2023-03-17T09:54:16.573Z,42.1
2023-03-17T09:55:17.057Z,42.5
2023-03-17T09:56:16.546Z,43.5
2023-03-17T09:57:17.033Z,42.9
2023-03-17T09:58:16.534Z,43.4
2023-03-17T09:59:17.034Z,41.9
2023-03-17T10:00:16.545Z,41.8
2023-03-17T10:01:17.247Z,41.7
2023-03-17T10:02:16.914Z,43.5
2023-03-17T10:03:17.426Z,44.1
2023-03-17T10:04:19.074Z,44.7
2023-03-17T10:05:16.738Z,45.4
2023-03-17T10:06:17.273Z,45.0
2023-03-17T10:07:16.768Z,45.5
2023-03-17T10:08:31.018Z,45.3
2023-03-17T10:09:16.840Z,45.6
2023-03-17T10:10:17.333Z,44.9
2023-03-17T10:11:16.840Z,44.6
2023-03-17T10:12:16.727Z,44.3
2023-03-17T10:13:17.218Z,44.8
2023-03-17T10:14:16.743Z,44.7
2023-03-17T10:15:17.243Z,44.8
2023-03-17T10:16:16.802Z,44.5
2023-03-17T10:17:17.310Z,44.6
2023-03-17T10:18:16.855Z,42.9
2023-03-17T10:19:17.343Z,42.0
2023-03-17T10:20:16.837Z,41.4
2023-03-17T10:21:17.361Z,42.2
2023-03-17T10:22:16.988Z,43.7
2023-03-17T10:23:16.479Z,44.5
2023-03-17T10:24:16.980Z,44.4
2023-03-17T10:25:16.485Z,43.7
2023-03-17T10:26:16.984Z,43.7
2023-03-17T10:27:16.499Z,46.0
2023-03-17T10:28:16.987Z,46.1
2023-03-17T10:29:16.508Z,46.0
2023-03-17T10:30:17.018Z,46.1
2023-03-17T10:31:16.690Z,45.1
2023-03-17T10:32:16.943Z,44.4
2023-03-17T10:33:17.500Z,45.9
2023-03-17T10:34:16.995Z,46.7
2023-03-17T10:35:16.467Z,46.5
2023-03-17T10:36:17.030Z,45.7
2023-03-17T10:37:16.546Z,44.8
2023-03-17T10:38:17.110Z,44.6
2023-03-17T10:39:16.698Z,43.6
2023-03-17T10:40:19.770Z,45.7
2023-03-17T10:41:17.305Z,46.8
2023-03-17T10:42:16.769Z,46.6
2023-03-17T10:43:17.249Z,45.2
2023-03-17T10:44:16.740Z,45.0
2023-03-17T10:45:17.248Z,45.1
2023-03-17T10:46:16.794Z,47.1
2023-03-17T10:47:17.301Z,45.5
2023-03-17T10:48:16.794Z,46.0
2023-03-17T10:49:17.306Z,45.7
2023-03-17T10:50:16.820Z,45.0
2023-03-17T10:51:17.388Z,44.7
2023-03-17T10:52:16.862Z,44.8
2023-03-17T10:53:17.359Z,42.6
2023-03-17T10:54:16.892Z,43.8
2023-03-17T10:55:17.388Z,43.9
2023-03-17T10:56:16.901Z,43.7
2023-03-17T10:57:17.410Z,43.9
2023-03-17T10:58:16.901Z,43.7
2023-03-17T10:59:17.478Z,42.9
2023-03-17T11:00:16.999Z,42.7
2023-03-17T11:01:16.616Z,42.3
2023-03-17T11:02:16.462Z,42.1
2023-03-17T11:03:16.962Z,42.4
2023-03-17T11:04:17.672Z,42.3
2023-03-17T11:05:17.176Z,42.1
2023-03-17T11:06:16.783Z,42.3
2023-03-17T11:07:17.291Z,42.6
2023-03-17T11:08:16.790Z,43.2
2023-03-17T11:09:17.282Z,42.7
2023-03-17T11:10:16.821Z,43.3
2023-03-17T11:11:17.345Z,42.5
2023-03-17T11:12:16.792Z,41.3
2023-03-17T11:13:17.268Z,41.0
2023-03-17T11:14:16.778Z,41.1
2023-03-17T11:15:17.311Z,41.3
2023-03-17T11:16:16.880Z,41.8
2023-03-17T11:17:17.424Z,41.7
2023-03-17T11:18:16.972Z,41.8
2023-03-17T11:19:16.498Z,42.3
2023-03-17T11:20:17.195Z,43.5
2023-03-17T11:21:16.859Z,43.4
2023-03-17T11:22:16.656Z,43.3
2023-03-17T11:23:17.170Z,42.4
2023-03-17T11:24:16.704Z,42.0
2023-03-17T11:25:17.226Z,42.0
2023-03-17T11:26:16.724Z,42.1
2023-03-17T11:27:17.237Z,42.3
2023-03-17T11:28:16.797Z,41.9
2023-03-17T11:29:17.349Z,41.6
2023-03-17T11:30:16.894Z,40.8
2023-03-17T11:31:17.426Z,42.2
2023-03-17T11:32:17.179Z,42.4
2023-03-17T11:33:16.730Z,41.4
2023-03-17T11:34:17.244Z,41.6
2023-03-17T11:35:16.766Z,42.7
2023-03-17T11:36:17.275Z,41.6
2023-03-17T11:37:16.778Z,41.8
2023-03-17T11:38:17.287Z,41.5
2023-03-17T11:39:16.802Z,41.8
2023-03-17T11:40:17.305Z,41.7
2023-03-17T11:41:16.785Z,41.0
2023-03-17T11:42:16.526Z,41.2
2023-03-17T11:43:17.024Z,40.6
2023-03-17T11:44:16.518Z,41.7
2023-03-17T11:45:17.053Z,41.0
2023-03-17T11:46:16.697Z,41.5
2023-03-17T11:47:17.204Z,41.6
2023-03-17T11:48:16.693Z,42.3
2023-03-17T11:49:17.215Z,42.0
2023-03-17T11:50:16.870Z,39.6
2023-03-17T11:51:17.375Z,40.2
2023-03-17T11:52:17.276Z,40.7
2023-03-17T11:53:16.772Z,40.6
2023-03-17T11:54:17.272Z,41.3
2023-03-17T11:55:16.766Z,41.8
2023-03-17T11:56:17.298Z,41.8
2023-03-17T11:57:16.825Z,42.2
2023-03-17T11:58:17.336Z,41.7
2023-03-17T11:59:16.856Z,41.6
2023-03-17T12:00:17.372Z,42.4
2023-03-17T12:01:16.837Z,42.9
2023-03-17T12:02:17.096Z,42.4
2023-03-17T12:03:16.646Z,42.1
2023-03-17T12:04:17.289Z,41.3
2023-03-17T12:05:16.793Z,41.6
2023-03-17T12:06:17.329Z,42.0
2023-03-17T12:07:16.842Z,41.2
2023-03-17T12:08:17.333Z,41.7
2023-03-17T12:09:16.829Z,41.9
2023-03-17T12:10:17.349Z,42.1
2023-03-17T12:11:16.854Z,42.6
2023-03-17T12:12:16.592Z,42.9
2023-03-17T12:13:17.114Z,43.3
2023-03-17T12:14:16.588Z,43.2
2023-03-17T12:15:17.214Z,43.0
2023-03-17T12:16:16.926Z,43.3
2023-03-17T12:17:16.563Z,43.5
2023-03-17T12:18:17.062Z,43.8
2023-03-17T12:19:16.561Z,43.6
2023-03-17T12:20:17.055Z,43.9
2023-03-17T12:21:16.535Z,43.4
2023-03-17T12:22:17.352Z,44.3
2023-03-17T12:23:16.853Z,44.1
2023-03-17T12:24:17.432Z,43.6
2023-03-17T12:25:16.904Z,43.3
2023-03-17T12:26:17.440Z,42.6
2023-03-17T12:27:16.953Z,43.0
2023-03-17T12:28:17.456Z,43.3
2023-03-17T12:29:17.005Z,43.0
2023-03-17T12:30:16.503Z,43.8
2023-03-17T12:31:17.120Z,43.2
2023-03-17T12:32:16.584Z,43.7
2023-03-17T12:33:17.076Z,43.9
2023-03-17T12:34:16.571Z,44.1
2023-03-17T12:35:17.098Z,43.9
2023-03-17T12:36:16.688Z,43.5
2023-03-17T12:37:17.199Z,43.5
2023-03-17T12:38:16.726Z,44.3
2023-03-17T12:39:17.274Z,44.3
2023-03-17T12:40:16.762Z,44.7
2023-03-17T12:41:17.343Z,44.4
2023-03-17T12:42:16.469Z,44.5
2023-03-17T12:43:16.961Z,44.4
2023-03-17T12:44:17.440Z,44.3
2023-03-17T12:45:16.934Z,44.4
2023-03-17T12:46:17.540Z,44.5
2023-03-17T12:47:17.077Z,44.5
2023-03-17T12:48:16.574Z,44.8
2023-03-17T12:49:17.071Z,44.9
2023-03-17T12:50:16.586Z,44.4
2023-03-17T12:51:17.085Z,44.4
2023-03-17T12:52:17.068Z,44.1
2023-03-17T12:53:16.618Z,44.2
2023-03-17T12:54:17.111Z,44.1
2023-03-17T12:55:16.625Z,44.2
2023-03-17T12:56:17.131Z,43.8
2023-03-17T12:57:16.696Z,44.1
2023-03-17T12:58:17.197Z,44.5
2023-03-17T12:59:16.683Z,44.4
2023-03-17T13:00:17.205Z,44.4
2023-03-17T13:01:16.822Z,44.6
2023-03-17T13:02:17.249Z,44.6
2023-03-17T13:03:16.865Z,44.3
2023-03-17T13:04:17.406Z,44.1
2023-03-17T13:05:16.933Z,44.4
2023-03-17T13:06:17.442Z,44.2
2023-03-17T13:07:16.954Z,44.4
2023-03-17T13:08:17.485Z,45.0
2023-03-17T13:09:17.008Z,45.0
2023-03-17T13:10:16.521Z,43.7
2023-03-17T13:11:17.039Z,44.1
2023-03-17T13:12:17.055Z,44.0
2023-03-17T13:13:16.548Z,44.0
2023-03-17T13:14:17.024Z,43.6
2023-03-17T13:15:16.540Z,43.7
2023-03-17T13:16:17.156Z,43.6
2023-03-17T13:17:16.738Z,43.3
2023-03-17T13:18:17.231Z,43.5
2023-03-17T13:19:16.772Z,43.7
2023-03-17T13:20:17.307Z,43.4
2023-03-17T13:21:16.798Z,44.0
2023-03-17T13:22:16.562Z,44.0
2023-03-17T13:23:17.091Z,42.8
2023-03-17T13:24:16.636Z,43.4
2023-03-17T13:25:17.130Z,43.8
2023-03-17T13:26:16.662Z,43.2
2023-03-17T13:27:17.184Z,43.5
2023-03-17T13:28:16.685Z,43.7
2023-03-17T13:29:17.209Z,43.7
2023-03-17T13:30:16.752Z,44.3
2023-03-17T13:31:17.293Z,43.8
2023-03-17T13:32:17.158Z,43.7
2023-03-17T13:33:17.827Z,43.8
2023-03-17T13:34:17.352Z,43.7
2023-03-17T13:35:16.942Z,44.1
2023-03-17T13:36:17.508Z,43.7
2023-03-17T13:37:17.024Z,43.3
2023-03-17T13:38:16.523Z,43.5
2023-03-17T13:39:21.816Z,43.9
2023-03-17T13:40:17.405Z,43.5
2023-03-17T13:41:16.900Z,43.1
2023-03-17T13:42:19.220Z,43.7
2023-03-17T13:43:16.863Z,43.0
2023-03-17T13:44:17.349Z,43.4
2023-03-17T13:45:16.829Z,43.6
2023-03-17T13:46:17.430Z,43.8
2023-03-17T13:47:17.229Z,44.0
2023-03-17T13:48:16.813Z,43.8